sensor_id;sensor_type;location;lat;lon;timestamp;P1;durP1;ratioP1;P2;durP2;ratioP2
72109;SDS011;59983;52.010;5.420;2023-03-24T00:01:04;6.05;;;5.53;;
72109;SDS011;59983;52.010;5.420;2023-03-24T00:03:31;6.75;;;6.05;;
72109;SDS011;59983;52.010;5.420;2023-03-24T00:05:59;6.83;;;6.23;;
72109;SDS011;59983;52.010;5.420;2023-03-24T00:08:28;7.18;;;6.07;;
72109;SDS011;59983;52.010;5.420;2023-03-24T00:11:02;8.90;;;6.57;;
72109;SDS011;59983;52.010;5.420;2023-03-24T00:13:32;5.60;;;5.20;;
72109;SDS011;59983;52.010;5.420;2023-03-24T00:16:04;5.85;;;5.55;;
72109;SDS011;59983;52.010;5.420;2023-03-24T00:18:33;5.77;;;5.37;;
72109;SDS011;59983;52.010;5.420;2023-03-24T00:21:02;6.35;;;5.75;;
72109;SDS011;59983;52.010;5.420;2023-03-24T00:23:30;6.70;;;6.10;;
72109;SDS011;59983;52.010;5.420;2023-03-24T00:26:01;6.45;;;5.82;;
72109;SDS011;59983;52.010;5.420;2023-03-24T00:28:30;7.45;;;6.20;;
72109;SDS011;59983;52.010;5.420;2023-03-24T00:31:02;6.43;;;5.93;;
72109;SDS011;59983;52.010;5.420;2023-03-24T00:33:31;6.22;;;5.70;;
72109;SDS011;59983;52.010;5.420;2023-03-24T00:36:04;5.65;;;5.35;;
72109;SDS011;59983;52.010;5.420;2023-03-24T00:38:32;5.88;;;5.32;;
72109;SDS011;59983;52.010;5.420;2023-03-24T00:41:00;6.80;;;6.22;;
72109;SDS011;59983;52.010;5.420;2023-03-24T00:43:27;6.93;;;5.90;;
72109;SDS011;59983;52.010;5.420;2023-03-24T00:46:01;6.82;;;6.00;;
72109;SDS011;59983;52.010;5.420;2023-03-24T00:48:33;7.32;;;5.90;;
72109;SDS011;59983;52.010;5.420;2023-03-24T00:51:00;6.53;;;5.40;;
72109;SDS011;59983;52.010;5.420;2023-03-24T00:53:30;7.20;;;6.60;;
72109;SDS011;59983;52.010;5.420;2023-03-24T00:55:57;6.63;;;6.10;;
72109;SDS011;59983;52.010;5.420;2023-03-24T00:58:24;6.93;;;6.05;;
72109;SDS011;59983;52.010;5.420;2023-03-24T01:00:52;5.85;;;5.45;;
72109;SDS011;59983;52.010;5.420;2023-03-24T01:03:20;6.60;;;6.03;;
72109;SDS011;59983;52.010;5.420;2023-03-24T01:05:53;6.90;;;6.18;;
72109;SDS011;59983;52.010;5.420;2023-03-24T01:08:23;6.07;;;5.57;;
72109;SDS011;59983;52.010;5.420;2023-03-24T01:10:50;6.18;;;5.65;;
72109;SDS011;59983;52.010;5.420;2023-03-24T01:13:20;6.47;;;5.97;;
72109;SDS011;59983;52.010;5.420;2023-03-24T01:15:49;6.35;;;5.90;;
72109;SDS011;59983;52.010;5.420;2023-03-24T01:18:17;6.75;;;6.35;;
72109;SDS011;59983;52.010;5.420;2023-03-24T01:20:44;9.57;;;6.60;;
72109;SDS011;59983;52.010;5.420;2023-03-24T01:23:15;6.30;;;5.68;;
72109;SDS011;59983;52.010;5.420;2023-03-24T01:25:45;5.60;;;5.30;;
72109;SDS011;59983;52.010;5.420;2023-03-24T01:28:14;5.25;;;4.95;;
72109;SDS011;59983;52.010;5.420;2023-03-24T01:30:43;5.78;;;5.38;;
72109;SDS011;59983;52.010;5.420;2023-03-24T01:33:10;5.20;;;4.80;;
72109;SDS011;59983;52.010;5.420;2023-03-24T01:35:36;7.18;;;6.53;;
72109;SDS011;59983;52.010;5.420;2023-03-24T01:38:07;6.47;;;6.00;;
72109;SDS011;59983;52.010;5.420;2023-03-24T01:40:35;6.53;;;5.80;;
72109;SDS011;59983;52.010;5.420;2023-03-24T01:43:04;6.15;;;5.72;;
72109;SDS011;59983;52.010;5.420;2023-03-24T01:54:01;6.35;;;5.75;;
72109;SDS011;59983;52.010;5.420;2023-03-24T01:56:32;6.13;;;5.68;;
72109;SDS011;59983;52.010;5.420;2023-03-24T01:59:01;5.87;;;5.47;;
72109;SDS011;59983;52.010;5.420;2023-03-24T02:01:32;5.43;;;5.03;;
72109;SDS011;59983;52.010;5.420;2023-03-24T02:03:59;5.90;;;5.60;;
72109;SDS011;59983;52.010;5.420;2023-03-24T02:06:29;5.55;;;5.15;;
72109;SDS011;59983;52.010;5.420;2023-03-24T02:08:58;6.90;;;6.55;;
72109;SDS011;59983;52.010;5.420;2023-03-24T02:11:28;6.13;;;5.70;;
72109;SDS011;59983;52.010;5.420;2023-03-24T02:13:56;5.93;;;5.53;;
72109;SDS011;59983;52.010;5.420;2023-03-24T02:30:21;6.05;;;5.65;;
72109;SDS011;59983;52.010;5.420;2023-03-24T02:38:42;6.63;;;6.03;;
72109;SDS011;59983;52.010;5.420;2023-03-24T02:41:31;5.72;;;5.22;;
72109;SDS011;59983;52.010;5.420;2023-03-24T02:46:50;5.57;;;5.18;;
72109;SDS011;59983;52.010;5.420;2023-03-24T02:49:55;5.45;;;5.15;;
72109;SDS011;59983;52.010;5.420;2023-03-24T02:52:21;5.00;;;4.60;;
72109;SDS011;59983;52.010;5.420;2023-03-24T02:57:57;5.47;;;5.03;;
72109;SDS011;59983;52.010;5.420;2023-03-24T03:00:30;4.63;;;4.32;;
72109;SDS011;59983;52.010;5.420;2023-03-24T03:03:00;4.38;;;4.18;;
72109;SDS011;59983;52.010;5.420;2023-03-24T03:05:35;6.10;;;4.40;;
72109;SDS011;59983;52.010;5.420;2023-03-24T03:08:08;6.25;;;4.70;;
72109;SDS011;59983;52.010;5.420;2023-03-24T03:10:39;4.45;;;4.07;;
72109;SDS011;59983;52.010;5.420;2023-03-24T03:13:15;4.22;;;3.92;;
72109;SDS011;59983;52.010;5.420;2023-03-24T03:15:49;4.72;;;4.40;;
72109;SDS011;59983;52.010;5.420;2023-03-24T03:18:21;5.13;;;4.20;;
72109;SDS011;59983;52.010;5.420;2023-03-24T03:21:05;4.18;;;3.88;;
72109;SDS011;59983;52.010;5.420;2023-03-24T03:26:32;5.43;;;4.70;;
72109;SDS011;59983;52.010;5.420;2023-03-24T03:29:04;6.53;;;4.32;;
72109;SDS011;59983;52.010;5.420;2023-03-24T03:31:38;4.93;;;4.50;;
72109;SDS011;59983;52.010;5.420;2023-03-24T03:34:12;10.43;;;4.97;;
72109;SDS011;59983;52.010;5.420;2023-03-24T03:39:55;4.88;;;4.47;;
72109;SDS011;59983;52.010;5.420;2023-03-24T03:42:24;5.28;;;4.90;;
72109;SDS011;59983;52.010;5.420;2023-03-24T03:44:51;5.40;;;4.07;;
72109;SDS011;59983;52.010;5.420;2023-03-24T03:47:18;5.22;;;4.50;;
72109;SDS011;59983;52.010;5.420;2023-03-24T03:49:48;8.73;;;5.03;;
72109;SDS011;59983;52.010;5.420;2023-03-24T03:52:16;10.50;;;5.85;;
72109;SDS011;59983;52.010;5.420;2023-03-24T03:54:43;5.53;;;5.13;;
72109;SDS011;59983;52.010;5.420;2023-03-24T03:57:11;8.13;;;5.30;;
72109;SDS011;59983;52.010;5.420;2023-03-24T03:59:39;8.07;;;4.90;;
72109;SDS011;59983;52.010;5.420;2023-03-24T04:15:45;6.03;;;5.63;;
72109;SDS011;59983;52.010;5.420;2023-03-24T04:20:47;9.55;;;6.00;;
72109;SDS011;59983;52.010;5.420;2023-03-24T04:23:25;9.17;;;5.53;;
72109;SDS011;59983;52.010;5.420;2023-03-24T04:26:15;8.75;;;5.55;;
72109;SDS011;59983;52.010;5.420;2023-03-24T04:29:02;17.52;;;6.50;;
72109;SDS011;59983;52.010;5.420;2023-03-24T04:34:09;9.88;;;6.97;;
72109;SDS011;59983;52.010;5.420;2023-03-24T04:36:50;6.20;;;5.67;;
72109;SDS011;59983;52.010;5.420;2023-03-24T04:39:30;10.98;;;5.90;;
72109;SDS011;59983;52.010;5.420;2023-03-24T04:42:01;16.10;;;5.97;;
72109;SDS011;59983;52.010;5.420;2023-03-24T04:44:32;12.13;;;5.18;;
72109;SDS011;59983;52.010;5.420;2023-03-24T04:46:59;15.02;;;6.72;;
72109;SDS011;59983;52.010;5.420;2023-03-24T04:49:28;9.40;;;5.90;;
72109;SDS011;59983;52.010;5.420;2023-03-24T04:51:54;14.13;;;6.65;;
72109;SDS011;59983;52.010;5.420;2023-03-24T04:54:21;11.43;;;6.45;;
72109;SDS011;59983;52.010;5.420;2023-03-24T04:56:54;11.43;;;5.70;;
72109;SDS011;59983;52.010;5.420;2023-03-24T04:59:23;12.88;;;6.18;;
72109;SDS011;59983;52.010;5.420;2023-03-24T05:01:51;12.10;;;5.70;;
72109;SDS011;59983;52.010;5.420;2023-03-24T05:04:21;13.25;;;6.00;;
72109;SDS011;59983;52.010;5.420;2023-03-24T05:06:49;14.98;;;6.40;;
72109;SDS011;59983;52.010;5.420;2023-03-24T05:09:16;16.20;;;6.78;;
72109;SDS011;59983;52.010;5.420;2023-03-24T05:11:48;13.27;;;6.65;;
72109;SDS011;59983;52.010;5.420;2023-03-24T05:14:15;16.07;;;6.40;;
72109;SDS011;59983;52.010;5.420;2023-03-24T05:16:41;13.35;;;6.47;;
72109;SDS011;59983;52.010;5.420;2023-03-24T05:19:08;10.68;;;6.00;;
72109;SDS011;59983;52.010;5.420;2023-03-24T05:21:36;15.98;;;6.03;;
72109;SDS011;59983;52.010;5.420;2023-03-24T05:24:03;16.27;;;6.25;;
72109;SDS011;59983;52.010;5.420;2023-03-24T05:26:29;17.67;;;5.80;;
72109;SDS011;59983;52.010;5.420;2023-03-24T05:28:58;15.68;;;5.47;;
72109;SDS011;59983;52.010;5.420;2023-03-24T05:31:25;13.50;;;6.03;;
72109;SDS011;59983;52.010;5.420;2023-03-24T05:33:52;16.90;;;5.45;;
72109;SDS011;59983;52.010;5.420;2023-03-24T05:36:19;22.20;;;6.95;;
72109;SDS011;59983;52.010;5.420;2023-03-24T05:38:45;19.17;;;6.90;;
72109;SDS011;59983;52.010;5.420;2023-03-24T05:41:12;21.50;;;7.13;;
72109;SDS011;59983;52.010;5.420;2023-03-24T05:43:38;13.55;;;5.80;;
72109;SDS011;59983;52.010;5.420;2023-03-24T05:46:04;25.15;;;6.88;;
72109;SDS011;59983;52.010;5.420;2023-03-24T05:48:31;21.60;;;7.10;;
72109;SDS011;59983;52.010;5.420;2023-03-24T05:50:58;21.20;;;6.17;;
72109;SDS011;59983;52.010;5.420;2023-03-24T05:53:24;17.80;;;5.85;;
72109;SDS011;59983;52.010;5.420;2023-03-24T05:55:51;19.08;;;7.00;;
72109;SDS011;59983;52.010;5.420;2023-03-24T05:58:18;17.73;;;7.53;;
72109;SDS011;59983;52.010;5.420;2023-03-24T06:00:46;17.50;;;6.35;;
72109;SDS011;59983;52.010;5.420;2023-03-24T06:03:13;15.63;;;6.70;;
72109;SDS011;59983;52.010;5.420;2023-03-24T06:05:42;7.07;;;6.05;;
72109;SDS011;59983;52.010;5.420;2023-03-24T06:08:11;8.52;;;5.93;;
72109;SDS011;59983;52.010;5.420;2023-03-24T06:10:38;13.70;;;6.57;;
72109;SDS011;59983;52.010;5.420;2023-03-24T06:13:05;17.63;;;7.07;;
72109;SDS011;59983;52.010;5.420;2023-03-24T06:15:34;6.27;;;5.50;;
72109;SDS011;59983;52.010;5.420;2023-03-24T06:18:01;16.45;;;6.82;;
72109;SDS011;59983;52.010;5.420;2023-03-24T06:20:30;15.98;;;6.22;;
72109;SDS011;59983;52.010;5.420;2023-03-24T06:22:57;13.30;;;6.38;;
72109;SDS011;59983;52.010;5.420;2023-03-24T06:25:25;14.20;;;6.53;;
72109;SDS011;59983;52.010;5.420;2023-03-24T06:27:53;14.30;;;4.77;;
72109;SDS011;59983;52.010;5.420;2023-03-24T06:30:20;11.35;;;6.15;;
72109;SDS011;59983;52.010;5.420;2023-03-24T06:32:47;10.35;;;6.35;;
72109;SDS011;59983;52.010;5.420;2023-03-24T06:35:14;15.73;;;6.03;;
72109;SDS011;59983;52.010;5.420;2023-03-24T06:37:41;10.05;;;6.15;;
72109;SDS011;59983;52.010;5.420;2023-03-24T06:40:08;9.70;;;5.77;;
72109;SDS011;59983;52.010;5.420;2023-03-24T06:42:38;10.75;;;6.22;;
72109;SDS011;59983;52.010;5.420;2023-03-24T06:45:05;10.85;;;6.47;;
72109;SDS011;59983;52.010;5.420;2023-03-24T06:47:33;12.52;;;7.15;;
72109;SDS011;59983;52.010;5.420;2023-03-24T06:49:59;9.57;;;6.63;;
72109;SDS011;59983;52.010;5.420;2023-03-24T06:52:26;13.60;;;6.03;;
72109;SDS011;59983;52.010;5.420;2023-03-24T06:54:53;13.65;;;6.55;;
72109;SDS011;59983;52.010;5.420;2023-03-24T06:57:20;10.68;;;6.38;;
72109;SDS011;59983;52.010;5.420;2023-03-24T06:59:46;7.13;;;5.60;;
72109;SDS011;59983;52.010;5.420;2023-03-24T07:02:14;13.40;;;6.72;;
72109;SDS011;59983;52.010;5.420;2023-03-24T07:04:41;12.37;;;6.10;;
72109;SDS011;59983;52.010;5.420;2023-03-24T07:07:07;13.80;;;6.35;;
72109;SDS011;59983;52.010;5.420;2023-03-24T07:09:54;14.10;;;5.53;;
72109;SDS011;59983;52.010;5.420;2023-03-24T07:12:21;7.18;;;5.43;;
72109;SDS011;59983;52.010;5.420;2023-03-24T07:14:48;10.93;;;5.45;;
72109;SDS011;59983;52.010;5.420;2023-03-24T07:17:14;15.10;;;6.67;;
72109;SDS011;59983;52.010;5.420;2023-03-24T07:19:41;6.43;;;5.18;;
72109;SDS011;59983;52.010;5.420;2023-03-24T07:22:08;9.27;;;5.30;;
72109;SDS011;59983;52.010;5.420;2023-03-24T07:24:34;14.02;;;5.40;;
72109;SDS011;59983;52.010;5.420;2023-03-24T07:27:01;10.65;;;5.30;;
72109;SDS011;59983;52.010;5.420;2023-03-24T07:29:28;11.50;;;6.50;;
72109;SDS011;59983;52.010;5.420;2023-03-24T07:31:54;12.50;;;5.25;;
72109;SDS011;59983;52.010;5.420;2023-03-24T07:34:24;9.02;;;5.90;;
72109;SDS011;59983;52.010;5.420;2023-03-24T07:36:51;10.15;;;4.97;;
72109;SDS011;59983;52.010;5.420;2023-03-24T07:39:18;20.38;;;7.50;;
72109;SDS011;59983;52.010;5.420;2023-03-24T07:41:45;7.47;;;4.60;;
72109;SDS011;59983;52.010;5.420;2023-03-24T07:44:12;11.10;;;6.07;;
72109;SDS011;59983;52.010;5.420;2023-03-24T07:46:38;11.57;;;6.50;;
72109;SDS011;59983;52.010;5.420;2023-03-24T07:49:06;11.65;;;5.43;;
72109;SDS011;59983;52.010;5.420;2023-03-24T07:51:44;9.57;;;6.20;;
72109;SDS011;59983;52.010;5.420;2023-03-24T07:54:11;7.97;;;4.70;;
72109;SDS011;59983;52.010;5.420;2023-03-24T07:56:38;15.55;;;6.50;;
72109;SDS011;59983;52.010;5.420;2023-03-24T07:59:04;12.48;;;6.07;;
72109;SDS011;59983;52.010;5.420;2023-03-24T08:01:31;12.95;;;5.82;;
72109;SDS011;59983;52.010;5.420;2023-03-24T08:03:57;16.55;;;5.65;;
72109;SDS011;59983;52.010;5.420;2023-03-24T08:06:24;11.47;;;6.50;;
72109;SDS011;59983;52.010;5.420;2023-03-24T08:08:51;17.02;;;5.50;;
72109;SDS011;59983;52.010;5.420;2023-03-24T08:11:17;15.55;;;6.55;;
72109;SDS011;59983;52.010;5.420;2023-03-24T08:13:44;10.23;;;6.13;;
72109;SDS011;59983;52.010;5.420;2023-03-24T08:16:10;6.68;;;5.05;;
72109;SDS011;59983;52.010;5.420;2023-03-24T08:18:37;6.37;;;5.83;;
72109;SDS011;59983;52.010;5.420;2023-03-24T08:21:03;11.57;;;5.28;;
72109;SDS011;59983;52.010;5.420;2023-03-24T08:23:31;7.40;;;5.13;;
72109;SDS011;59983;52.010;5.420;2023-03-24T08:25:57;11.82;;;5.55;;
72109;SDS011;59983;52.010;5.420;2023-03-24T08:28:24;11.52;;;5.65;;
72109;SDS011;59983;52.010;5.420;2023-03-24T08:30:50;15.67;;;5.43;;
72109;SDS011;59983;52.010;5.420;2023-03-24T08:33:17;6.75;;;5.20;;
72109;SDS011;59983;52.010;5.420;2023-03-24T08:35:43;15.55;;;6.07;;
72109;SDS011;59983;52.010;5.420;2023-03-24T08:38:12;14.13;;;5.70;;
72109;SDS011;59983;52.010;5.420;2023-03-24T08:40:43;14.38;;;6.28;;
72109;SDS011;59983;52.010;5.420;2023-03-24T08:43:11;10.77;;;6.07;;
72109;SDS011;59983;52.010;5.420;2023-03-24T08:45:40;5.43;;;4.97;;
72109;SDS011;59983;52.010;5.420;2023-03-24T08:48:06;7.97;;;6.93;;
72109;SDS011;59983;52.010;5.420;2023-03-24T08:50:35;13.77;;;5.40;;
72109;SDS011;59983;52.010;5.420;2023-03-24T08:53:04;13.40;;;5.53;;
72109;SDS011;59983;52.010;5.420;2023-03-24T08:55:32;6.60;;;5.20;;
72109;SDS011;59983;52.010;5.420;2023-03-24T08:57:59;10.50;;;5.45;;
72109;SDS011;59983;52.010;5.420;2023-03-24T09:00:26;6.88;;;6.15;;
72109;SDS011;59983;52.010;5.420;2023-03-24T09:02:54;13.02;;;4.88;;
72109;SDS011;59983;52.010;5.420;2023-03-24T09:05:22;12.07;;;6.20;;
72109;SDS011;59983;52.010;5.420;2023-03-24T09:08:10;15.03;;;5.57;;
72109;SDS011;59983;52.010;5.420;2023-03-24T09:10:38;8.18;;;4.75;;
72109;SDS011;59983;52.010;5.420;2023-03-24T09:13:05;9.13;;;5.40;;
72109;SDS011;59983;52.010;5.420;2023-03-24T09:15:32;10.20;;;5.63;;
72109;SDS011;59983;52.010;5.420;2023-03-24T09:17:58;10.65;;;5.68;;
72109;SDS011;59983;52.010;5.420;2023-03-24T09:20:26;4.97;;;3.93;;
72109;SDS011;59983;52.010;5.420;2023-03-24T09:22:52;8.77;;;4.60;;
72109;SDS011;59983;52.010;5.420;2023-03-24T09:25:19;6.22;;;5.57;;
72109;SDS011;59983;52.010;5.420;2023-03-24T09:27:46;9.23;;;5.18;;
72109;SDS011;59983;52.010;5.420;2023-03-24T09:30:14;9.50;;;5.53;;
72109;SDS011;59983;52.010;5.420;2023-03-24T09:32:42;5.67;;;4.70;;
72109;SDS011;59983;52.010;5.420;2023-03-24T09:35:09;4.88;;;4.15;;
72109;SDS011;59983;52.010;5.420;2023-03-24T09:37:36;8.23;;;4.93;;
72109;SDS011;59983;52.010;5.420;2023-03-24T09:40:04;12.65;;;5.40;;
72109;SDS011;59983;52.010;5.420;2023-03-24T09:42:33;8.63;;;5.13;;
72109;SDS011;59983;52.010;5.420;2023-03-24T09:45:04;7.53;;;6.03;;
72109;SDS011;59983;52.010;5.420;2023-03-24T09:47:38;9.68;;;4.80;;
72109;SDS011;59983;52.010;5.420;2023-03-24T09:50:15;7.00;;;4.57;;
72109;SDS011;59983;52.010;5.420;2023-03-24T09:52:49;7.82;;;4.70;;
72109;SDS011;59983;52.010;5.420;2023-03-24T09:55:23;10.55;;;4.85;;
72109;SDS011;59983;52.010;5.420;2023-03-24T09:57:51;6.23;;;4.10;;
72109;SDS011;59983;52.010;5.420;2023-03-24T10:00:22;12.82;;;5.03;;
72109;SDS011;59983;52.010;5.420;2023-03-24T10:02:50;14.90;;;5.82;;
72109;SDS011;59983;52.010;5.420;2023-03-24T10:08:34;7.57;;;5.07;;
72109;SDS011;59983;52.010;5.420;2023-03-24T10:11:07;9.83;;;4.43;;
72109;SDS011;59983;52.010;5.420;2023-03-24T10:16:49;5.80;;;5.03;;
72109;SDS011;59983;52.010;5.420;2023-03-24T10:31:10;7.93;;;4.88;;
72109;SDS011;59983;52.010;5.420;2023-03-24T10:33:40;11.85;;;5.32;;
72109;SDS011;59983;52.010;5.420;2023-03-24T10:36:09;16.17;;;4.75;;
72109;SDS011;59983;52.010;5.420;2023-03-24T10:38:40;12.87;;;4.77;;
72109;SDS011;59983;52.010;5.420;2023-03-24T10:41:08;8.18;;;4.72;;
72109;SDS011;59983;52.010;5.420;2023-03-24T10:43:42;11.73;;;5.65;;
72109;SDS011;59983;52.010;5.420;2023-03-24T10:46:11;8.27;;;4.47;;
72109;SDS011;59983;52.010;5.420;2023-03-24T10:48:43;14.48;;;5.32;;
72109;SDS011;59983;52.010;5.420;2023-03-24T10:53:43;4.30;;;3.72;;
72109;SDS011;59983;52.010;5.420;2023-03-24T10:56:17;9.60;;;5.50;;
72109;SDS011;59983;52.010;5.420;2023-03-24T10:59:01;7.53;;;4.15;;
72109;SDS011;59983;52.010;5.420;2023-03-24T11:01:28;6.47;;;4.32;;
72109;SDS011;59983;52.010;5.420;2023-03-24T11:03:59;11.00;;;4.53;;
72109;SDS011;59983;52.010;5.420;2023-03-24T11:06:30;11.07;;;5.35;;
72109;SDS011;59983;52.010;5.420;2023-03-24T11:11:46;4.63;;;4.20;;
72109;SDS011;59983;52.010;5.420;2023-03-24T11:14:26;10.18;;;5.53;;
72109;SDS011;59983;52.010;5.420;2023-03-24T11:17:09;4.97;;;4.20;;
72109;SDS011;59983;52.010;5.420;2023-03-24T11:19:50;5.95;;;4.40;;
72109;SDS011;59983;52.010;5.420;2023-03-24T11:22:22;6.30;;;4.57;;
72109;SDS011;59983;52.010;5.420;2023-03-24T11:24:51;7.20;;;5.03;;
72109;SDS011;59983;52.010;5.420;2023-03-24T11:27:20;6.20;;;5.22;;
72109;SDS011;59983;52.010;5.420;2023-03-24T11:29:53;5.20;;;3.80;;
72109;SDS011;59983;52.010;5.420;2023-03-24T11:32:21;4.63;;;4.03;;
72109;SDS011;59983;52.010;5.420;2023-03-24T11:34:57;6.38;;;4.57;;
72109;SDS011;59983;52.010;5.420;2023-03-24T11:37:28;4.28;;;4.00;;
72109;SDS011;59983;52.010;5.420;2023-03-24T11:40:13;4.65;;;4.25;;
72109;SDS011;59983;52.010;5.420;2023-03-24T11:42:50;8.57;;;4.27;;
72109;SDS011;59983;52.010;5.420;2023-03-24T11:45:22;5.38;;;4.30;;
72109;SDS011;59983;52.010;5.420;2023-03-24T11:47:55;6.32;;;4.75;;
72109;SDS011;59983;52.010;5.420;2023-03-24T11:50:30;4.82;;;4.43;;
72109;SDS011;59983;52.010;5.420;2023-03-24T11:53:01;8.95;;;4.78;;
72109;SDS011;59983;52.010;5.420;2023-03-24T11:55:37;4.93;;;4.23;;
72109;SDS011;59983;52.010;5.420;2023-03-24T12:01:36;5.43;;;4.88;;
72109;SDS011;59983;52.010;5.420;2023-03-24T12:09:26;6.40;;;4.40;;
72109;SDS011;59983;52.010;5.420;2023-03-24T12:21:03;6.82;;;4.25;;
72109;SDS011;59983;52.010;5.420;2023-03-24T12:23:56;4.50;;;3.37;;
72109;SDS011;59983;52.010;5.420;2023-03-24T12:26:27;3.97;;;3.72;;
72109;SDS011;59983;52.010;5.420;2023-03-24T12:37:06;8.07;;;4.03;;
72109;SDS011;59983;52.010;5.420;2023-03-24T12:42:29;9.23;;;4.65;;
72109;SDS011;59983;52.010;5.420;2023-03-24T12:50:33;8.27;;;4.40;;
72109;SDS011;59983;52.010;5.420;2023-03-24T12:53:06;16.33;;;5.43;;
72109;SDS011;59983;52.010;5.420;2023-03-24T12:58:40;7.13;;;4.50;;
72109;SDS011;59983;52.010;5.420;2023-03-24T13:04:09;4.70;;;4.30;;
72109;SDS011;59983;52.010;5.420;2023-03-24T13:06:47;7.68;;;4.57;;
72109;SDS011;59983;52.010;5.420;2023-03-24T13:14:53;8.50;;;4.95;;
72109;SDS011;59983;52.010;5.420;2023-03-24T13:17:32;5.43;;;4.53;;
72109;SDS011;59983;52.010;5.420;2023-03-24T13:20:11;8.38;;;4.97;;
72109;SDS011;59983;52.010;5.420;2023-03-24T13:22:39;6.93;;;4.90;;
72109;SDS011;59983;52.010;5.420;2023-03-24T13:25:44;7.10;;;4.60;;
72109;SDS011;59983;52.010;5.420;2023-03-24T13:28:03;7.65;;;4.60;;
72109;SDS011;59983;52.010;5.420;2023-03-24T13:30:36;7.13;;;4.20;;
72109;SDS011;59983;52.010;5.420;2023-03-24T13:33:10;8.80;;;5.13;;
72109;SDS011;59983;52.010;5.420;2023-03-24T13:41:18;6.22;;;5.38;;
72109;SDS011;59983;52.010;5.420;2023-03-24T13:43:50;6.90;;;4.60;;
72109;SDS011;59983;52.010;5.420;2023-03-24T13:46:23;11.88;;;4.93;;
72109;SDS011;59983;52.010;5.420;2023-03-24T13:48:51;5.53;;;5.00;;
72109;SDS011;59983;52.010;5.420;2023-03-24T13:51:30;5.10;;;4.65;;
72109;SDS011;59983;52.010;5.420;2023-03-24T14:02:38;4.72;;;4.43;;
72109;SDS011;59983;52.010;5.420;2023-03-24T14:07:41;6.03;;;5.18;;
72109;SDS011;59983;52.010;5.420;2023-03-24T14:13:00;7.85;;;4.05;;
72109;SDS011;59983;52.010;5.420;2023-03-24T14:18:05;5.28;;;4.78;;
72109;SDS011;59983;52.010;5.420;2023-03-24T14:21:04;6.05;;;4.55;;
72109;SDS011;59983;52.010;5.420;2023-03-24T14:23:39;3.87;;;3.57;;
72109;SDS011;59983;52.010;5.420;2023-03-24T14:28:51;5.70;;;4.40;;
72109;SDS011;59983;52.010;5.420;2023-03-24T14:36:20;2.90;;;2.70;;
72109;SDS011;59983;52.010;5.420;2023-03-24T14:38:56;2.88;;;2.35;;
72109;SDS011;59983;52.010;5.420;2023-03-24T14:41:32;2.63;;;2.53;;
72109;SDS011;59983;52.010;5.420;2023-03-24T14:44:04;3.35;;;2.40;;
72109;SDS011;59983;52.010;5.420;2023-03-24T14:46:38;3.13;;;2.92;;
72109;SDS011;59983;52.010;5.420;2023-03-24T14:54:12;5.43;;;3.40;;
72109;SDS011;59983;52.010;5.420;2023-03-24T14:56:42;3.28;;;2.97;;
72109;SDS011;59983;52.010;5.420;2023-03-24T14:59:17;4.13;;;3.72;;
72109;SDS011;59983;52.010;5.420;2023-03-24T15:01:56;3.57;;;3.30;;
72109;SDS011;59983;52.010;5.420;2023-03-24T15:04:26;5.40;;;3.75;;
72109;SDS011;59983;52.010;5.420;2023-03-24T15:06:53;5.38;;;3.65;;
72109;SDS011;59983;52.010;5.420;2023-03-24T15:09:19;3.55;;;3.35;;
72109;SDS011;59983;52.010;5.420;2023-03-24T15:11:46;3.72;;;3.40;;
72109;SDS011;59983;52.010;5.420;2023-03-24T15:14:21;5.17;;;3.43;;
72109;SDS011;59983;52.010;5.420;2023-03-24T15:16:53;3.08;;;2.88;;
72109;SDS011;59983;52.010;5.420;2023-03-24T15:19:24;5.13;;;3.80;;
72109;SDS011;59983;52.010;5.420;2023-03-24T15:21:59;4.47;;;3.25;;
72109;SDS011;59983;52.010;5.420;2023-03-24T15:24:29;4.55;;;3.22;;
72109;SDS011;59983;52.010;5.420;2023-03-24T15:29:35;5.38;;;3.35;;
72109;SDS011;59983;52.010;5.420;2023-03-24T15:32:03;4.38;;;3.40;;
72109;SDS011;59983;52.010;5.420;2023-03-24T15:37:03;7.00;;;3.28;;
72109;SDS011;59983;52.010;5.420;2023-03-24T15:39:34;6.93;;;3.27;;
72109;SDS011;59983;52.010;5.420;2023-03-24T15:42:06;4.40;;;2.78;;
72109;SDS011;59983;52.010;5.420;2023-03-24T15:44:39;4.78;;;3.55;;
72109;SDS011;59983;52.010;5.420;2023-03-24T15:49:55;3.13;;;2.92;;
72109;SDS011;59983;52.010;5.420;2023-03-24T15:52:31;5.57;;;3.30;;
72109;SDS011;59983;52.010;5.420;2023-03-24T15:55:01;3.40;;;2.95;;
72109;SDS011;59983;52.010;5.420;2023-03-24T15:57:39;10.00;;;3.22;;
72109;SDS011;59983;52.010;5.420;2023-03-24T16:00:14;5.35;;;2.75;;
72109;SDS011;59983;52.010;5.420;2023-03-24T16:02:46;3.50;;;2.65;;
72109;SDS011;59983;52.010;5.420;2023-03-24T16:05:27;7.33;;;3.10;;
72109;SDS011;59983;52.010;5.420;2023-03-24T16:08:03;7.38;;;3.05;;
72109;SDS011;59983;52.010;5.420;2023-03-24T16:13:03;4.18;;;2.95;;
72109;SDS011;59983;52.010;5.420;2023-03-24T16:15:53;3.85;;;2.88;;
72109;SDS011;59983;52.010;5.420;2023-03-24T16:18:25;5.03;;;3.60;;
72109;SDS011;59983;52.010;5.420;2023-03-24T16:21:00;5.82;;;3.42;;
72109;SDS011;59983;52.010;5.420;2023-03-24T16:23:28;5.85;;;3.83;;
72109;SDS011;59983;52.010;5.420;2023-03-24T16:25:55;7.40;;;3.65;;
72109;SDS011;59983;52.010;5.420;2023-03-24T16:28:22;4.07;;;3.42;;
72109;SDS011;59983;52.010;5.420;2023-03-24T16:31:33;5.43;;;4.23;;
72109;SDS011;59983;52.010;5.420;2023-03-24T16:33:47;5.10;;;3.60;;
72109;SDS011;59983;52.010;5.420;2023-03-24T16:36:14;9.07;;;4.40;;
72109;SDS011;59983;52.010;5.420;2023-03-24T16:38:42;7.55;;;3.92;;
72109;SDS011;59983;52.010;5.420;2023-03-24T16:41:10;9.35;;;3.90;;
72109;SDS011;59983;52.010;5.420;2023-03-24T16:43:41;5.63;;;3.80;;
72109;SDS011;59983;52.010;5.420;2023-03-24T16:46:28;10.23;;;4.40;;
72109;SDS011;59983;52.010;5.420;2023-03-24T16:48:56;12.93;;;4.00;;
72109;SDS011;59983;52.010;5.420;2023-03-24T16:51:23;7.30;;;3.55;;
72109;SDS011;59983;52.010;5.420;2023-03-24T16:53:50;6.50;;;3.58;;
72109;SDS011;59983;52.010;5.420;2023-03-24T16:56:17;4.10;;;3.70;;
72109;SDS011;59983;52.010;5.420;2023-03-24T16:58:45;9.13;;;4.03;;
72109;SDS011;59983;52.010;5.420;2023-03-24T17:01:26;5.82;;;4.03;;
72109;SDS011;59983;52.010;5.420;2023-03-24T17:03:59;5.97;;;4.22;;
72109;SDS011;59983;52.010;5.420;2023-03-24T17:06:35;8.20;;;4.20;;
72109;SDS011;59983;52.010;5.420;2023-03-24T17:09:03;6.00;;;3.80;;
72109;SDS011;59983;52.010;5.420;2023-03-24T17:11:34;9.10;;;3.55;;
72109;SDS011;59983;52.010;5.420;2023-03-24T17:14:03;9.63;;;4.00;;
72109;SDS011;59983;52.010;5.420;2023-03-24T17:16:34;5.60;;;3.22;;
72109;SDS011;59983;52.010;5.420;2023-03-24T17:19:03;7.07;;;3.97;;
72109;SDS011;59983;52.010;5.420;2023-03-24T17:21:31;6.80;;;3.83;;
72109;SDS011;59983;52.010;5.420;2023-03-24T17:23:59;5.18;;;3.80;;
72109;SDS011;59983;52.010;5.420;2023-03-24T17:26:27;6.82;;;4.00;;
72109;SDS011;59983;52.010;5.420;2023-03-24T17:28:57;10.20;;;4.30;;
72109;SDS011;59983;52.010;5.420;2023-03-24T17:31:23;11.60;;;4.80;;
72109;SDS011;59983;52.010;5.420;2023-03-24T17:33:50;4.47;;;4.07;;
72109;SDS011;59983;52.010;5.420;2023-03-24T17:36:16;8.32;;;4.13;;
72109;SDS011;59983;52.010;5.420;2023-03-24T17:38:43;9.90;;;4.15;;
72109;SDS011;59983;52.010;5.420;2023-03-24T17:41:12;7.57;;;4.65;;
72109;SDS011;59983;52.010;5.420;2023-03-24T17:43:39;9.95;;;4.78;;
72109;SDS011;59983;52.010;5.420;2023-03-24T17:46:05;9.80;;;4.17;;
72109;SDS011;59983;52.010;5.420;2023-03-24T17:48:32;7.05;;;4.70;;
72109;SDS011;59983;52.010;5.420;2023-03-24T17:50:59;7.80;;;4.70;;
72109;SDS011;59983;52.010;5.420;2023-03-24T17:53:25;12.43;;;5.78;;
72109;SDS011;59983;52.010;5.420;2023-03-24T17:55:53;7.70;;;5.03;;